Lakeville, Pennsylvania
Current Conditions -  °F | °C
As of 9:53 AM on Thursday 30 Oct 2014 (Local Time) from KMPO Reporting Station
Overcast Overcast  
Wind Chill: 37°   Ceiling: 2400
Heat Index: 42°   Visibility: 10mi
Dew Point: 36°   Wind: 8mph
Humidity: 79%   Direction: 310°NW
Pressure: 30.01"   Gusts: NA
Location:  41.43°N, 75.27°W
Report Text: KMPO 301353Z AUTO 31007KT 10SM SCT016 BKN024 OVC029 06/02 A3001 RMK AO2 SLP173 T00560022 $
Loading
Personal Weather Stations






























Interactive Weather Map
Tropical Storm Tracking
New forecast layout! Learn more

10-Day Weather Forecast

Advertisements
Track Severe Weather on mobile